Time;durP1;ratioP1;P1;durP2;ratioP2;P2;SDS_P1;SDS_P2;PMS_P1;PMS_P2;Temp;Humidity;BMP_temperature;BMP_pressure;BME280_temperature;BME280_humidity;BME280_pressure;Samples;Min_cycle;Max_cycle;Signal;HPM_P1;HPM_P2
2021/04/24 00:02:29;;;;;;;17.10;8.63;;;3.00;99.90;;;4.07;100.00;101231.97;4946501;28;100385;-61
2021/04/24 00:05:45;;;;;;;13.23;8.83;;;3.00;99.90;;;3.84;100.00;101237.75;4948944;28;99931;-61
2021/04/24 00:08:57;;;;;;;17.07;9.07;;;2.90;99.90;;;3.91;100.00;101233.81;4949047;28;100052;-61
2021/04/24 00:12:09;;;;;;;15.97;8.43;;;2.80;99.90;;;4.06;100.00;101230.25;4929077;28;100345;-61
2021/04/24 00:15:21;;;;;;;14.40;8.43;;;2.70;99.90;;;4.12;100.00;101229.84;4949222;28;99616;-60
2021/04/24 00:18:34;;;;;;;12.73;9.40;;;2.70;99.90;;;3.81;100.00;101232.69;4946904;28;100006;-60
2021/04/24 00:21:45;;;;;;;16.37;8.30;;;2.60;99.90;;;3.71;100.00;101235.00;4945902;28;100198;-61
2021/04/24 00:24:58;;;;;;;13.67;7.97;;;2.50;99.90;;;3.70;100.00;101233.31;4946028;28;101320;-60
2021/04/24 00:28:10;;;;;;;13.63;9.10;;;2.50;99.90;;;3.58;100.00;101229.63;4947662;28;101007;-61
2021/04/24 00:31:22;;;;;;;16.23;10.47;;;2.50;99.90;;;3.32;100.00;101230.28;4947895;28;100499;-61
2021/04/24 00:34:33;;;;;;;13.50;9.37;;;2.50;99.90;;;3.23;100.00;101228.16;4946418;28;99940;-61
2021/04/24 00:37:44;;;;;;;13.50;9.37;;;2.40;99.90;;;3.43;100.00;101229.66;4947538;28;101877;-61
2021/04/24 00:40:56;;;;;;;13.63;9.30;;;2.40;99.90;;;3.72;100.00;101227.91;4947328;28;100023;-60
2021/04/24 00:47:36;;;;;;;12.03;8.40;;;2.30;99.90;;;3.39;100.00;101222.81;4945465;28;99736;-61
2021/04/24 00:50:50;;;;;;;15.67;9.87;;;2.20;99.90;;;3.12;100.00;101227.91;4946877;28;100237;-60
2021/04/24 00:54:02;;;;;;;17.77;9.70;;;2.20;99.90;;;3.08;100.00;101221.97;4937084;28;100206;-60
2021/04/24 01:00:59;;;;;;;13.53;8.67;;;2.10;99.90;;;3.35;100.00;101229.22;4950130;28;99693;-61
2021/04/24 01:04:11;;;;;;;14.63;9.17;;;2.00;99.90;;;3.32;100.00;101230.28;4951837;28;99767;-59
2021/04/24 01:07:23;;;;;;;14.80;9.07;;;2.00;99.90;;;2.86;100.00;101229.38;4952624;28;99847;-60
2021/04/24 01:10:35;;;;;;;13.40;8.30;;;2.00;99.90;;;2.82;100.00;101225.22;4944172;28;98567;-61
2021/04/24 01:13:47;;;;;;;14.07;9.77;;;1.90;99.90;;;2.74;100.00;101225.63;4956497;28;99494;-60
2021/04/24 01:16:59;;;;;;;12.07;9.40;;;1.80;99.90;;;2.78;100.00;101226.34;4949011;28;99824;-60
2021/04/24 01:20:13;;;;;;;12.90;8.53;;;1.80;99.90;;;2.77;100.00;101229.91;4948199;28;99507;-60
2021/04/24 01:23:26;;;;;;;12.87;8.70;;;1.70;99.90;;;2.72;100.00;101221.41;4947730;28;100429;-60
2021/04/24 01:26:37;;;;;;;17.93;9.93;;;1.70;99.90;;;2.61;100.00;101224.63;4947015;28;100078;-60
2021/04/24 01:29:48;;;;;;;13.43;8.23;;;1.70;99.90;;;2.88;100.00;101222.22;4948835;28;101142;-60
2021/04/24 01:33:06;;;;;;;16.60;9.03;;;1.70;99.90;;;2.80;100.00;101213.88;4947590;28;99694;-61
2021/04/24 01:36:17;;;;;;;17.00;9.13;;;1.70;99.90;;;2.55;100.00;101214.41;4947115;28;99745;-61
2021/04/24 01:39:46;;;;;;;11.10;7.80;;;1.70;99.90;;;2.49;100.00;101212.06;4949197;28;99826;-61
2021/04/24 01:42:58;;;;;;;9.13;7.37;;;1.70;99.90;;;2.82;100.00;101206.72;4937850;28;95009;-61
2021/04/24 01:46:09;;;;;;;15.70;8.83;;;1.80;99.90;;;2.67;100.00;101211.06;4942997;28;98297;-61
2021/04/24 01:49:20;;;;;;;10.80;7.30;;;1.90;99.90;;;2.78;100.00;101207.84;4949402;28;99563;-60
2021/04/24 01:52:32;;;;;;;15.57;7.93;;;2.00;99.90;;;2.84;100.00;101200.41;4946406;28;100087;-60
2021/04/24 01:55:49;;;;;;;13.90;8.97;;;2.00;99.90;;;2.56;100.00;101191.47;4915177;28;99775;-60
2021/04/24 01:59:01;;;;;;;15.73;9.07;;;2.10;99.90;;;2.52;100.00;101196.91;4944449;28;101031;-60
2021/04/24 02:02:14;;;;;;;14.33;9.27;;;2.10;99.90;;;2.73;100.00;101196.66;4942960;28;100325;-60
2021/04/24 02:05:25;;;;;;;14.47;9.10;;;2.10;99.90;;;2.52;100.00;101182.84;4944094;28;100431;-61
2021/04/24 02:12:31;;;;;;;13.37;9.03;;;2.00;99.90;;;2.71;100.00;101187.97;4930604;28;100279;-60
2021/04/24 02:15:43;;;;;;;14.03;9.17;;;2.00;99.90;;;2.48;100.00;101194.53;4944773;28;99795;-61
2021/04/24 02:18:55;;;;;;;15.47;9.73;;;1.90;99.90;;;2.59;100.00;101193.94;4944817;28;100106;-59
2021/04/24 02:22:10;;;;;;;16.13;9.10;;;1.90;99.90;;;2.84;100.00;101192.47;4943972;28;99837;-60
2021/04/24 02:25:24;;;;;;;12.30;9.67;;;1.80;99.90;;;2.54;100.00;101186.28;4944441;28;99996;-61
2021/04/24 02:28:36;;;;;;;13.53;9.97;;;1.80;99.90;;;2.37;100.00;101187.19;4944992;28;100463;-60
2021/04/24 02:32:02;;;;;;;18.43;9.60;;;1.70;99.90;;;2.46;100.00;101192.00;4946483;28;100217;-60
2021/04/24 02:35:15;;;;;;;16.33;10.27;;;1.60;99.90;;;2.60;100.00;101180.63;4926237;28;100242;-61
2021/04/24 02:38:27;;;;;;;15.97;10.60;;;1.60;99.90;;;2.55;100.00;101176.56;4924762;28;100414;-61
2021/04/24 02:41:38;;;;;;;16.67;9.90;;;1.50;99.90;;;2.39;100.00;101177.41;4936783;28;99914;-60
2021/04/24 02:44:50;;;;;;;16.83;10.33;;;1.50;99.90;;;2.27;100.00;101183.34;4944329;28;99947;-60
2021/04/24 02:48:14;;;;;;;16.47;9.67;;;1.40;99.90;;;2.39;100.00;101181.81;4944968;28;100106;-60
2021/04/24 02:55:10;;;;;;;22.43;12.17;;;1.30;99.90;;;2.47;100.00;101177.81;4946397;28;100020;-61
2021/04/24 02:58:22;;;;;;;18.13;10.50;;;1.30;99.90;;;2.34;100.00;101178.59;4946062;28;99816;-61
2021/04/24 03:01:46;;;;;;;17.93;11.47;;;1.20;99.90;;;2.25;100.00;101184.38;4944371;28;101482;-60
2021/04/24 03:08:17;;;;;;;19.23;12.37;;;1.20;99.90;;;2.27;100.00;101190.41;4952265;28;99682;-59
2021/04/24 03:11:28;;;;;;;12.37;9.70;;;1.10;99.90;;;2.16;100.00;101183.09;4928184;28;100111;-60
2021/04/24 03:14:40;;;;;;;16.37;11.07;;;1.10;99.90;;;2.12;100.00;101185.03;4948305;28;99914;-60
2021/04/24 03:17:52;;;;;;;19.07;11.50;;;1.10;99.90;;;1.99;100.00;101177.84;4930731;28;100117;-60
2021/04/24 03:21:10;;;;;;;18.17;11.23;;;1.00;99.90;;;1.72;100.00;101177.53;4949002;28;99823;-60
2021/04/24 03:32:08;;;;;;;20.80;10.30;;;0.80;99.90;;;1.61;100.00;101193.91;4865832;28;100566;-60
2021/04/24 03:35:29;;;;;;;19.10;10.50;;;0.70;99.90;;;1.47;100.00;101190.28;4867472;28;99913;-60
2021/04/24 03:38:56;;;;;;;18.43;9.80;;;0.60;99.90;;;1.57;100.00;101188.88;4877580;28;99995;-61
2021/04/24 03:42:07;;;;;;;15.67;10.07;;;0.60;99.90;;;1.65;100.00;101190.19;4949700;28;99793;-61
2021/04/24 03:45:19;;;;;;;17.47;9.63;;;0.50;99.90;;;1.66;100.00;101194.53;4950952;28;99694;-60
2021/04/24 03:48:36;;;;;;;18.87;10.13;;;0.40;99.90;;;1.66;100.00;101198.94;4934260;28;100029;-60
2021/04/24 03:55:07;;;;;;;15.43;10.30;;;0.40;99.90;;;1.31;100.00;101201.59;4953445;28;101668;-61
2021/04/24 03:58:32;;;;;;;14.93;9.77;;;0.40;99.90;;;1.27;100.00;101200.03;4957223;28;99478;-61
2021/04/24 04:01:44;;;;;;;15.80;10.23;;;0.40;99.90;;;1.40;100.00;101201.13;4950377;28;99729;-61
2021/04/24 04:05:04;;;;;;;17.60;10.87;;;0.40;99.90;;;1.42;100.00;101206.34;4929659;28;100067;-62
2021/04/24 04:23:00;;;;;;;17.73;12.80;;;0.40;99.90;;;1.50;100.00;101205.94;4945684;28;99917;-60
2021/04/24 04:29:55;;;;;;;15.87;10.50;;;0.40;99.90;;;1.87;100.00;101202.25;4941645;28;100176;-61
2021/04/24 04:33:13;;;;;;;16.03;10.77;;;0.40;99.90;;;1.95;100.00;101208.84;4947328;28;99917;-62
2021/04/24 04:36:24;;;;;;;17.97;11.03;;;0.50;99.90;;;1.96;100.00;101207.91;4945134;28;100580;-61
2021/04/24 04:43:41;;;;;;;74.83;15.27;;;0.60;99.90;;;2.47;100.00;101208.69;4954698;28;99726;-60
2021/04/24 04:51:11;;;;;;;17.70;12.10;;;0.80;99.90;;;3.14;100.00;101220.75;4885775;28;100608;-61
2021/04/24 05:02:14;;;;;;;15.80;10.70;;;1.40;99.90;;;4.22;100.00;101224.84;4902423;28;100253;-62
2021/04/24 05:12:41;;;;;;;18.97;10.27;;;2.10;99.90;;;4.49;100.00;101224.94;4944908;28;100226;-61
2021/04/24 05:20:24;;;;;;;14.57;9.80;;;2.60;99.90;;;5.06;100.00;101223.00;4945230;28;100370;-61
2021/04/24 05:31:27;;;;;;;11.73;8.03;;;3.50;99.90;;;5.16;100.00;101218.81;4921894;28;98051;-62
2021/04/24 05:34:38;;;;;;;9.77;7.17;;;3.80;99.90;;;5.39;100.00;101228.75;4964195;28;99718;-60
2021/04/24 05:38:18;;;;;;;11.87;7.47;;;4.00;99.90;;;5.35;100.00;101231.69;4951861;28;101349;-62
2021/04/24 05:42:10;;;;;;;11.80;7.37;;;4.30;99.90;;;5.61;100.00;101230.78;4874197;28;100143;-62
2021/04/24 05:45:33;;;;;;;11.60;7.40;;;4.50;99.90;;;5.85;100.00;101230.94;4773110;29;99944;-62
2021/04/24 05:48:53;;;;;;;13.07;7.03;;;4.70;99.90;;;5.78;100.00;101233.16;4787993;29;99895;-61
2021/04/24 05:52:05;;;;;;;13.83;6.97;;;4.80;99.90;;;6.07;100.00;101230.34;4883593;28;100268;-61
2021/04/24 05:59:12;;;;;;;10.53;6.73;;;5.20;99.90;;;6.77;100.00;101234.19;4954849;28;100403;-62
2021/04/24 06:02:24;;;;;;;11.20;6.60;;;5.50;99.90;;;7.19;100.00;101229.34;4949451;28;99877;-60
2021/04/24 06:09:34;;;;;;;10.10;6.33;;;6.10;99.90;;;6.90;100.00;101231.50;4947401;28;99733;-61
2021/04/24 06:12:45;;;;;;;12.60;6.13;;;6.40;99.90;;;6.79;100.00;101224.28;4964631;28;99919;-60
2021/04/24 06:15:57;;;;;;;10.33;6.77;;;6.60;99.90;;;7.02;100.00;101237.72;4965399;28;100268;-60
2021/04/24 06:19:09;;;;;;;10.40;6.47;;;6.80;99.90;;;8.11;100.00;101231.19;5007696;28;70163;-60
2021/04/24 06:22:20;;;;;;;11.77;6.47;;;7.00;99.90;;;7.73;100.00;101232.34;4984913;28;86845;-61
2021/04/24 06:25:33;;;;;;;14.33;7.17;;;7.30;99.90;;;7.60;100.00;101228.06;4961795;28;98110;-59
2021/04/24 06:28:44;;;;;;;12.80;6.37;;;7.60;99.90;;;8.17;100.00;101230.72;4957119;28;98455;-62
2021/04/24 06:31:56;;;;;;;10.77;6.90;;;7.80;99.90;;;8.84;100.00;101236.06;4982811;28;84011;-61
2021/04/24 06:35:07;;;;;;;12.07;5.97;;;8.00;99.90;;;8.24;100.00;101234.59;4967611;28;85258;-61
2021/04/24 06:38:19;;;;;;;10.20;6.30;;;8.30;99.90;;;8.45;100.00;101226.75;4978897;28;89470;-61
2021/04/24 06:41:30;;;;;;;9.97;6.30;;;8.60;99.90;;;8.57;100.00;101229.28;4963051;28;92934;-59
2021/04/24 06:45:08;;;;;;;10.27;6.87;;;8.90;99.90;;;8.76;100.00;101230.50;4977153;28;90189;-60
2021/04/24 06:48:20;;;;;;;10.37;6.87;;;9.10;99.80;;;8.73;100.00;101226.25;4897074;28;94428;-62
2021/04/24 06:51:32;;;;;;;9.80;6.03;;;9.40;98.30;;;8.27;100.00;101227.22;4961792;28;94717;-61
2021/04/24 06:54:49;;;;;;;13.57;7.30;;;9.50;96.70;;;8.78;100.00;101228.56;4963700;28;99875;-62
2021/04/24 06:58:00;;;;;;;14.53;7.53;;;9.70;96.20;;;9.52;100.00;101232.22;4967149;28;93622;-61
2021/04/24 07:01:23;;;;;;;15.23;7.20;;;9.80;95.90;;;10.18;100.00;101222.09;4977808;28;90781;-60
2021/04/24 07:04:36;;;;;;;12.80;6.37;;;10.10;95.70;;;10.65;100.00;101220.63;4955543;28;94003;-61
2021/04/24 07:07:47;;;;;;;13.90;6.30;;;10.40;95.20;;;9.82;100.00;101213.59;4951524;28;97846;-61
2021/04/24 07:18:11;;;;;;;12.87;6.43;;;11.20;90.70;;;10.46;100.00;101212.56;4980090;28;64329;-61
2021/04/24 07:21:24;;;;;;;10.07;6.23;;;11.50;89.40;;;10.85;100.00;101210.84;4984754;28;86840;-60
2021/04/24 07:24:47;;;;;;;14.00;6.57;;;11.70;84.40;;;10.16;100.00;101214.19;4965163;28;95974;-61
2021/04/24 07:27:59;;;;;;;10.80;6.47;;;11.90;81.80;;;11.28;100.00;101210.47;4973132;28;84425;-61
2021/04/24 07:31:22;;;;;;;11.77;7.40;;;12.00;82.30;;;11.22;100.00;101211.91;4957479;28;85604;-61
2021/04/24 07:34:33;;;;;;;14.13;6.80;;;12.20;80.70;;;11.46;100.00;101209.63;4983983;28;87813;-61
2021/04/24 07:37:45;;;;;;;12.07;7.20;;;12.40;80.40;;;12.16;100.00;101215.63;4998340;28;64823;-61
2021/04/24 07:40:57;;;;;;;9.40;6.27;;;12.70;80.10;;;11.71;100.00;101216.25;5004006;28;66997;-62
2021/04/24 07:44:08;;;;;;;11.27;5.73;;;13.00;77.20;;;11.48;100.00;101218.41;4996362;28;77872;-61
2021/04/24 07:47:25;;;;;;;9.43;6.43;;;13.20;75.20;;;11.32;100.00;101223.47;4992188;28;62233;-60
2021/04/24 07:50:37;;;;;;;9.43;5.67;;;13.30;70.90;;;12.86;100.00;101224.91;4995286;28;71893;-61
2021/04/24 07:53:49;;;;;;;10.60;6.17;;;13.60;71.00;;;12.32;100.00;101221.22;4989695;28;74254;-62
2021/04/24 07:57:01;;;;;;;10.50;6.07;;;14.00;68.20;;;11.73;100.00;101225.00;4996833;28;71299;-61
2021/04/24 08:00:25;;;;;;;8.80;5.83;;;14.30;64.40;;;12.30;100.00;101219.69;5003610;28;77017;-60
2021/04/24 08:03:36;;;;;;;9.83;6.13;;;14.30;61.40;;;11.14;100.00;101225.13;4995155;28;68995;-61
2021/04/24 08:06:48;;;;;;;8.20;5.63;;;14.30;59.30;;;11.98;100.00;101228.09;4983787;28;74143;-62
2021/04/24 08:10:00;;;;;;;9.67;5.60;;;14.10;59.60;;;11.96;100.00;101228.25;5009143;28;62971;-61
2021/04/24 08:13:11;;;;;;;10.30;6.30;;;14.10;61.30;;;11.75;100.00;101220.34;5008236;28;67581;-60
2021/04/24 08:16:22;;;;;;;9.83;5.93;;;14.20;60.10;;;12.12;100.00;101222.25;5008853;28;66372;-61
2021/04/24 08:19:33;;;;;;;10.63;6.03;;;14.20;59.50;;;12.24;100.00;101221.09;5007999;28;65830;-62
2021/04/24 08:22:44;;;;;;;9.23;5.93;;;14.40;58.60;;;13.07;100.00;101221.97;5005046;28;57826;-60
2021/04/24 08:25:57;;;;;;;7.93;6.23;;;14.70;58.60;;;12.61;100.00;101221.09;5016147;28;66450;-61
2021/04/24 08:29:08;;;;;;;10.50;5.83;;;14.90;57.20;;;12.34;100.00;101221.94;5002940;28;70041;-61
2021/04/24 08:32:20;;;;;;;8.10;5.30;;;14.90;55.80;;;12.50;100.00;101214.06;4972279;28;69576;-60
2021/04/24 08:35:31;;;;;;;6.70;4.70;;;14.80;55.70;;;12.94;100.00;101212.44;5007924;28;68416;-61
2021/04/24 08:38:42;;;;;;;8.97;5.70;;;15.00;54.80;;;12.83;100.00;101212.66;5008698;28;76670;-61
2021/04/24 08:42:01;;;;;;;8.77;5.72;;;15.20;53.80;;;12.83;100.00;101207.28;5012023;28;66098;-61
2021/04/24 08:48:30;;;;;;;7.93;4.67;;;15.30;53.00;;;14.10;100.00;101200.69;5009131;28;60930;-62
2021/04/24 08:52:08;;;;;;;6.43;4.60;;;15.40;52.50;;;13.37;100.00;101202.81;4987351;28;65651;-62
2021/04/24 08:55:23;;;;;;;7.90;5.07;;;15.70;50.90;;;13.10;100.00;101197.50;5007282;28;69572;-61
2021/04/24 08:58:42;;;;;;;7.50;5.43;;;15.70;47.70;;;12.55;100.00;101208.28;4980636;28;70315;-61
2021/04/24 09:01:54;;;;;;;11.35;5.13;;;15.50;49.10;;;13.30;100.00;101213.34;5009645;28;61754;-62
2021/04/24 09:05:05;;;;;;;10.00;5.70;;;15.50;49.40;;;13.83;100.00;101203.56;5008020;28;67651;-62
2021/04/24 09:08:30;;;;;;;7.78;4.72;;;15.60;49.70;;;13.83;100.00;101196.31;5011679;28;67240;-62
2021/04/24 09:11:57;;;;;;;10.30;6.30;;;15.70;48.30;;;13.85;100.00;101199.69;5013955;28;57528;-61
2021/04/24 09:15:14;;;;;;;9.17;6.00;;;15.60;49.00;;;13.22;100.00;101191.78;5012121;28;55286;-60
2021/04/24 09:18:26;;;;;;;9.10;6.22;;;15.60;49.90;;;12.98;100.00;101193.34;5006640;28;54682;-62
2021/04/24 09:21:38;;;;;;;11.93;6.13;;;15.60;50.60;;;12.55;100.00;101198.38;5014497;28;62461;-60
2021/04/24 09:25:07;;;;;;;8.00;6.10;;;15.30;51.00;;;12.92;100.00;101200.16;5015891;28;49979;-62
2021/04/24 09:28:20;;;;;;;9.25;6.00;;;15.00;50.40;;;13.19;100.00;101194.78;4988135;28;57178;-62
2021/04/24 09:31:38;;;;;;;12.10;6.50;;;14.70;51.00;;;13.39;100.00;101192.75;5013005;28;56620;-61
2021/04/24 09:34:54;;;;;;;8.10;5.90;;;14.60;51.00;;;13.42;100.00;101181.69;5003790;28;51340;-62
2021/04/24 09:38:12;;;;;;;8.90;5.87;;;14.70;51.30;;;14.14;100.00;101187.75;4999493;28;50438;-60
2021/04/24 09:41:45;;;;;;;9.90;6.00;;;15.00;51.50;;;13.83;100.00;101158.66;4997878;28;52840;-61
2021/04/24 09:44:59;;;;;;;7.30;5.73;;;15.20;50.60;;;13.62;100.00;101167.06;4929718;28;53900;-61
2021/04/24 09:48:29;;;;;;;10.03;5.07;;;15.20;48.80;;;13.33;100.00;101171.03;4993071;28;58052;-61
2021/04/24 09:51:41;;;;;;;7.77;5.37;;;15.10;49.00;;;13.33;100.00;101169.19;4970904;28;59294;-62
2021/04/24 09:54:54;;;;;;;14.10;6.00;;;15.10;49.20;;;13.35;100.00;101167.22;5008593;28;63411;-61
2021/04/24 09:58:06;;;;;;;9.90;6.17;;;15.20;49.90;;;12.83;100.00;101166.16;4984394;28;63606;-61
2021/04/24 10:01:24;;;;;;;8.30;6.13;;;15.30;49.70;;;12.92;100.00;101165.22;5015392;28;59773;-61
2021/04/24 10:04:39;;;;;;;9.80;5.95;;;15.20;49.60;;;13.00;100.00;101159.94;4994313;28;62871;-62
2021/04/24 10:07:59;;;;;;;11.70;6.90;;;15.10;49.50;;;13.45;100.00;101157.22;5008617;28;62169;-61
2021/04/24 10:11:10;;;;;;;10.00;5.90;;;15.10;50.10;;;13.59;100.00;101162.03;5009133;28;70272;-63
2021/04/24 10:14:22;;;;;;;10.50;6.70;;;15.20;50.00;;;13.95;100.00;101162.78;4992111;28;54972;-62
2021/04/24 10:17:35;;;;;;;9.00;6.73;;;15.30;50.50;;;12.92;100.00;101157.16;5011842;28;53306;-62
2021/04/24 10:20:48;;;;;;;10.50;7.40;;;15.60;49.40;;;12.77;100.00;101156.84;5014022;28;56699;-62
2021/04/24 10:24:00;;;;;;;10.97;6.97;;;15.60;49.50;;;12.88;100.00;101162.00;5014071;28;60717;-62
2021/04/24 10:27:12;;;;;;;12.48;6.38;;;15.20;50.30;;;13.63;100.00;101157.16;5010133;28;70834;-61
2021/04/24 10:30:24;;;;;;;8.50;5.90;;;15.10;50.80;;;14.22;100.00;101158.19;5009580;28;69719;-62
2021/04/24 10:33:37;;;;;;;8.63;5.40;;;15.40;50.70;;;13.76;100.00;101149.53;5012082;28;62905;-62
2021/04/24 10:36:50;;;;;;;6.03;5.20;;;15.60;49.40;;;13.35;100.00;101145.69;5014010;28;57146;-63
2021/04/24 10:40:03;;;;;;;6.55;5.00;;;15.70;48.10;;;13.76;100.00;101146.00;4997207;28;59242;-61
2021/04/24 10:43:18;;;;;;;7.78;5.38;;;15.80;47.90;;;13.64;100.00;101146.25;5018666;28;51502;-62
2021/04/24 10:46:56;;;;;;;9.00;6.18;;;15.90;47.60;;;13.60;100.00;101152.94;5015941;28;51701;-61
2021/04/24 10:50:20;;;;;;;8.15;5.60;;;15.90;47.00;;;13.12;100.00;101144.41;4939217;28;54165;-63
2021/04/24 11:02:36;;;;;;;10.63;5.50;;;15.30;47.70;;;14.24;100.00;101140.88;4908918;28;53864;-61
2021/04/24 11:06:05;;;;;;;7.10;5.55;;;15.50;47.60;;;13.52;100.00;101150.19;4872178;28;69745;-63
2021/04/24 11:09:26;;;;;;;7.13;5.28;;;15.80;47.60;;;12.84;100.00;101151.72;4911400;28;57841;-62
2021/04/24 11:12:38;;;;;;;6.82;4.78;;;15.70;47.00;;;13.11;100.00;101150.78;4906332;28;70671;-62
2021/04/24 11:15:57;;;;;;;7.10;5.57;;;15.40;46.80;;;13.28;100.00;101148.16;4950677;28;64250;-62
2021/04/24 11:19:10;;;;;;;7.88;4.75;;;15.20;47.40;;;13.73;100.00;101144.44;4991903;28;66804;-61
2021/04/24 11:22:37;;;;;;;5.10;4.60;;;15.30;47.20;;;13.99;100.00;101126.47;4976968;28;85353;-61
2021/04/24 11:25:59;;;;;;;6.47;4.93;;;15.50;47.00;;;13.69;100.00;101118.91;4977199;28;78281;-61
2021/04/24 11:29:43;;;;;;;6.82;5.10;;;15.70;46.10;;;14.35;100.00;101137.91;4968986;28;85635;-62
2021/04/24 11:33:33;;;;;;;6.55;4.93;;;15.80;46.20;;;14.15;100.00;101128.41;4956217;28;76476;-61
2021/04/24 11:41:51;;;;;;;9.50;4.93;;;16.10;44.90;;;14.09;100.00;101133.59;4978852;28;90793;-61
2021/04/24 11:45:20;;;;;;;6.03;4.78;;;16.00;45.10;;;13.60;100.00;101144.00;4919792;28;97420;-61
2021/04/24 11:48:38;;;;;;;5.97;4.45;;;15.70;45.00;;;13.49;100.00;101142.44;4951110;28;90357;-61
2021/04/24 11:52:07;;;;;;;5.28;4.25;;;15.50;45.00;;;14.28;99.95;101133.34;4963996;28;98534;-62
2021/04/24 11:55:20;;;;;;;4.95;3.80;;;15.30;45.30;;;14.87;91.90;101129.69;4989111;28;99123;-62
2021/04/24 11:58:31;;;;;;;7.80;4.60;;;15.70;46.10;;;13.99;90.24;101137.22;4992645;28;83277;-61
2021/04/24 12:01:48;;;;;;;6.38;4.22;;;16.20;43.90;;;14.48;94.85;101139.31;4979321;28;100021;-62
2021/04/24 12:05:05;;;;;;;8.85;4.47;;;16.10;43.60;;;14.43;91.38;101130.91;4997008;28;84746;-62
2021/04/24 12:08:16;;;;;;;7.50;4.93;;;16.20;43.80;;;14.70;88.72;101126.13;4967958;28;82773;-61
2021/04/24 12:11:28;;;;;;;10.57;4.40;;;16.50;43.40;;;15.24;89.23;101129.22;4993095;28;71075;-63
2021/04/24 12:14:40;;;;;;;6.28;4.30;;;16.60;43.40;;;15.00;79.85;101123.81;5001388;28;79443;-62
2021/04/24 12:17:56;;;;;;;9.43;4.05;;;17.10;42.40;;;15.46;83.26;101133.94;5001485;28;72771;-63
2021/04/24 12:21:08;;;;;;;6.60;3.80;;;17.50;41.90;;;15.05;82.18;101133.09;5001206;28;84467;-62
2021/04/24 12:24:19;;;;;;;7.72;4.88;;;17.70;41.00;;;15.62;78.13;101124.19;5008418;28;68679;-62
2021/04/24 12:27:55;;;;;;;6.07;3.97;;;18.00;40.70;;;15.14;86.17;101125.84;5002224;28;68758;-62
2021/04/24 12:31:08;;;;;;;5.07;3.97;;;18.20;40.50;;;14.66;92.74;101127.44;4941892;28;80264;-61
2021/04/24 12:34:19;;;;;;;6.18;4.07;;;18.00;40.60;;;14.64;92.42;101126.78;4997937;28;73444;-61
2021/04/24 12:37:32;;;;;;;5.95;3.65;;;17.70;41.50;;;14.76;90.56;101131.84;4980538;28;90170;-61
2021/04/24 12:40:46;;;;;;;5.35;3.83;;;17.40;41.70;;;14.73;88.48;101125.78;5003780;28;82955;-62
2021/04/24 12:43:59;;;;;;;6.25;4.18;;;17.30;41.70;;;14.56;86.37;101121.38;5007472;28;68550;-62
2021/04/24 12:47:10;;;;;;;5.15;3.67;;;17.30;41.70;;;14.82;92.36;101123.97;5001610;28;58698;-62
2021/04/24 12:50:32;;;;;;;6.28;4.40;;;17.30;41.90;;;14.38;95.80;101134.03;5001869;28;58029;-61
2021/04/24 12:54:01;;;;;;;5.40;3.58;;;17.30;41.90;;;13.42;100.00;101127.09;5010514;28;65836;-62
2021/04/24 12:57:33;;;;;;;6.30;4.10;;;17.00;41.70;;;13.32;100.00;101116.44;4994619;28;71005;-60
2021/04/24 13:04:22;;;;;;;5.75;4.13;;;15.70;43.30;;;14.00;100.00;101122.75;4963512;28;58895;-61
2021/04/24 13:07:38;;;;;;;6.53;4.15;;;15.30;44.70;;;13.81;100.00;101122.16;4979064;28;75629;-62
2021/04/24 13:10:49;;;;;;;7.00;4.00;;;15.10;45.50;;;13.44;100.00;101119.72;4983535;28;79421;-62
2021/04/24 13:14:16;;;;;;;6.35;3.75;;;15.10;45.70;;;13.60;100.00;101119.81;4988116;28;79774;-59
2021/04/24 13:17:37;;;;;;;5.72;4.10;;;15.10;46.00;;;13.63;100.00;101116.81;4989135;28;53188;-62
2021/04/24 13:21:25;;;;;;;4.68;3.95;;;15.00;46.10;;;14.06;100.00;101109.69;4973177;28;60235;-61
2021/04/24 13:36:16;;;;;;;5.15;3.65;;;15.30;45.80;;;14.95;100.00;101088.44;4963543;28;55201;-63
2021/04/24 13:39:27;;;;;;;6.28;3.38;;;15.50;46.50;;;14.22;100.00;101090.91;4967358;28;61367;-62
2021/04/24 13:42:54;;;;;;;3.95;3.55;;;15.80;45.80;;;14.84;97.98;101088.75;4971679;28;62546;-62
2021/04/24 13:46:06;;;;;;;4.32;3.40;;;16.10;45.90;;;14.97;96.06;101087.25;4966003;28;84705;-62
2021/04/24 13:49:31;;;;;;;3.42;3.13;;;16.40;45.40;;;14.28;94.81;101077.66;4962686;28;92323;-63
2021/04/24 13:52:43;;;;;;;5.40;3.80;;;16.60;45.20;;;14.45;100.00;101086.66;4966759;28;88786;-62
2021/04/24 13:55:54;;;;;;;4.60;3.53;;;16.70;43.70;;;14.38;99.44;101086.44;4960364;28;93311;-61
2021/04/24 13:59:06;;;;;;;5.03;3.28;;;16.60;43.80;;;14.41;95.88;101073.69;4968878;28;82131;-62
2021/04/24 14:02:23;;;;;;;4.93;3.40;;;16.50;44.20;;;14.66;100.00;101075.44;4963018;28;91425;-62
2021/04/24 14:05:35;;;;;;;4.03;2.97;;;16.40;44.10;;;14.50;100.00;101075.38;4962159;28;89878;-62
2021/04/24 14:09:11;;;;;;;5.40;3.40;;;16.30;44.10;;;14.57;99.05;101074.59;4973686;28;95031;-62
2021/04/24 14:12:23;;;;;;;7.22;3.22;;;16.30;44.30;;;14.74;92.09;101062.81;4986666;28;68160;-62
2021/04/24 14:15:37;;;;;;;4.22;2.85;;;16.40;43.90;;;13.91;98.43;101080.69;4978747;28;80046;-63
2021/04/24 14:18:48;;;;;;;5.45;3.13;;;16.40;43.50;;;14.43;99.32;101080.59;4980088;28;68016;-61
2021/04/24 14:22:21;;;;;;;5.20;2.97;;;16.20;44.20;;;14.07;98.87;101069.16;4982688;28;85192;-62
2021/04/24 14:25:44;;;;;;;4.15;2.72;;;16.10;44.10;;;14.85;97.09;101067.03;4981108;28;66777;-60
2021/04/24 14:28:56;;;;;;;4.10;2.50;;;16.00;44.70;;;14.54;99.05;101072.22;4973897;28;66243;-62
2021/04/24 14:32:20;;;;;;;4.78;2.83;;;16.00;44.80;;;14.11;98.13;101069.66;4970148;28;48852;-62
2021/04/24 14:35:31;;;;;;;7.22;3.05;;;16.00;44.70;;;13.99;100.00;101071.81;4997688;28;57280;-61
2021/04/24 14:38:44;;;;;;;4.13;2.42;;;15.80;45.10;;;14.07;100.00;101061.09;4969555;28;64299;-61
2021/04/24 14:41:56;;;;;;;4.45;2.33;;;15.70;45.10;;;14.31;97.91;101065.72;4986598;28;58904;-61
2021/04/24 14:45:29;;;;;;;2.63;2.15;;;15.60;45.20;;;14.48;93.74;101069.31;4986681;28;61186;-61
2021/04/24 14:48:40;;;;;;;2.83;2.35;;;15.70;44.90;;;14.40;93.52;101069.31;4904464;28;62636;-61
2021/04/24 14:51:51;;;;;;;4.22;2.08;;;15.80;44.70;;;14.86;93.90;101060.63;4978866;28;76042;-62
2021/04/24 14:58:47;;;;;;;3.42;2.17;;;16.00;44.70;;;14.20;100.00;101068.72;4988999;28;73264;-62
2021/04/24 15:01:58;;;;;;;3.45;1.88;;;15.90;44.80;;;14.37;99.95;101071.28;4988475;28;69986;-61
2021/04/24 15:05:16;;;;;;;3.95;2.53;;;15.90;45.30;;;13.95;100.00;101059.69;4992427;28;65772;-63
2021/04/24 15:08:27;;;;;;;5.38;2.40;;;15.80;44.60;;;13.69;100.00;101070.47;4985298;28;72235;-61
2021/04/24 15:11:39;;;;;;;5.03;2.13;;;15.60;44.90;;;13.58;100.00;101068.91;4987041;28;69962;-60
2021/04/24 15:15:11;;;;;;;4.63;2.10;;;15.30;45.10;;;13.97;97.69;101055.81;4980573;28;78706;-61
2021/04/24 15:18:22;;;;;;;4.90;2.33;;;15.20;45.50;;;14.07;96.28;101055.72;4992259;28;76245;-61
2021/04/24 15:21:33;;;;;;;3.42;2.40;;;15.10;45.40;;;13.87;96.05;101057.78;4996957;28;57269;-61
2021/04/24 15:24:44;;;;;;;4.45;2.38;;;15.10;45.90;;;13.58;97.70;101065.38;4993600;28;58437;-61
2021/04/24 15:27:57;;;;;;;7.03;2.40;;;14.90;45.20;;;13.46;100.00;101072.03;4987197;28;63494;-60
2021/04/24 15:31:09;;;;;;;4.70;2.45;;;14.80;45.70;;;13.40;100.00;101065.41;4989606;28;65562;-61
2021/04/24 15:34:29;;;;;;;4.80;2.35;;;14.60;46.10;;;13.48;98.22;101059.25;4997556;28;50211;-61
2021/04/24 15:37:40;;;;;;;3.25;1.85;;;14.50;46.10;;;13.39;95.67;101062.88;4995314;28;54430;-61
2021/04/24 15:40:51;;;;;;;14.38;3.83;;;14.40;45.90;;;13.19;93.56;101054.19;4993372;28;55362;-61
2021/04/24 15:44:03;;;;;;;5.00;2.38;;;14.30;45.80;;;13.07;94.72;101055.41;4991890;28;62964;-61